createdAt,value
2023-01-17T00:02:21.093Z,66.67
2023-01-17T00:05:09.511Z,66.70
2023-01-17T00:07:57.883Z,66.87
2023-01-17T00:10:29.234Z,66.97
2023-01-17T00:13:00.532Z,66.77
2023-01-17T00:15:31.763Z,67.04
2023-01-17T00:18:02.577Z,66.70
2023-01-17T00:20:50.862Z,66.87
2023-01-17T00:23:39.227Z,66.79
2023-01-17T00:26:11.383Z,67.04
2023-01-17T00:28:41.315Z,66.99
2023-01-17T00:31:11.637Z,66.97
2023-01-17T00:33:41.097Z,67.05
2023-01-17T00:36:11.003Z,67.19
2023-01-17T00:38:40.541Z,66.99
2023-01-17T00:41:10.335Z,67.03
2023-01-17T00:43:58.715Z,67.06
2023-01-17T00:46:47.067Z,67.11
2023-01-17T00:49:35.318Z,67.13
2023-01-17T00:52:23.338Z,66.93
2023-01-17T00:55:11.420Z,66.98
2023-01-17T00:57:59.638Z,67.08
2023-01-17T01:00:47.784Z,66.94
2023-01-17T01:03:36.082Z,67.17
2023-01-17T01:06:24.697Z,67.34
2023-01-17T01:09:12.989Z,67.39
2023-01-17T01:12:01.157Z,67.26
2023-01-17T01:14:49.662Z,67.20
2023-01-17T01:17:37.842Z,67.21
2023-01-17T01:20:26.106Z,67.21
2023-01-17T01:23:14.499Z,67.27
2023-01-17T01:26:02.820Z,67.18
2023-01-17T01:28:50.960Z,67.37
2023-01-17T01:31:40.238Z,67.33
2023-01-17T01:34:11.009Z,66.94
2023-01-17T01:36:41.844Z,67.07
2023-01-17T01:39:12.416Z,67.15
2023-01-17T01:41:43.213Z,67.05
2023-01-17T01:44:31.043Z,67.10
2023-01-17T01:47:01.766Z,67.19
2023-01-17T01:49:32.455Z,67.16
2023-01-17T01:52:03.050Z,67.19
2023-01-17T01:54:34.796Z,67.46
2023-01-17T01:57:05.375Z,67.44
2023-01-17T01:59:36.067Z,67.25
2023-01-17T02:02:06.891Z,67.25
2023-01-17T02:04:37.532Z,67.37
2023-01-17T02:07:10.381Z,67.26
2023-01-17T02:09:41.083Z,67.41
2023-01-17T02:12:11.746Z,67.41
2023-01-17T02:14:42.586Z,67.16
2023-01-17T02:17:16.735Z,67.41
2023-01-17T02:20:06.653Z,67.31
2023-01-17T02:22:56.728Z,67.27
2023-01-17T02:25:36.690Z,67.29
2023-01-17T02:28:12.360Z,67.56
2023-01-17T02:30:43.958Z,67.47
2023-01-17T02:33:18.484Z,67.36
2023-01-17T02:35:52.809Z,67.43
2023-01-17T02:38:28.461Z,67.33
2023-01-17T02:40:59.335Z,67.36
2023-01-17T02:43:30.233Z,67.47
2023-01-17T02:46:01.024Z,67.22
2023-01-17T02:48:33.012Z,67.25
2023-01-17T02:51:20.063Z,67.19
2023-01-17T02:53:54.762Z,67.40
2023-01-17T02:56:28.573Z,67.11
2023-01-17T02:59:06.043Z,67.30
2023-01-17T03:01:39.132Z,67.22
2023-01-17T03:04:10.697Z,67.19
2023-01-17T03:06:42.768Z,67.19
2023-01-17T03:09:13.420Z,67.34
2023-01-17T03:11:44.661Z,67.32
2023-01-17T03:14:15.294Z,67.20
2023-01-17T03:16:46.073Z,67.22
2023-01-17T03:19:16.761Z,67.39
2023-01-17T03:21:47.401Z,67.28
2023-01-17T03:24:18.155Z,67.28
2023-01-17T03:26:48.889Z,67.31
2023-01-17T03:29:19.645Z,67.49
2023-01-17T03:31:50.271Z,67.55
2023-01-17T03:34:21.037Z,67.31
2023-01-17T03:36:51.797Z,67.60
2023-01-17T03:39:22.530Z,67.30
2023-01-17T03:41:53.103Z,67.42
2023-01-17T03:44:23.924Z,67.40
2023-01-17T03:46:54.626Z,67.41
2023-01-17T03:49:25.446Z,67.25
2023-01-17T03:51:56.273Z,67.40
2023-01-17T03:54:26.989Z,67.36
2023-01-17T03:56:57.730Z,67.21
2023-01-17T03:59:28.391Z,67.43
2023-01-17T04:01:59.133Z,67.25
2023-01-17T04:04:29.896Z,67.45
2023-01-17T04:07:00.797Z,67.40
2023-01-17T04:09:34.157Z,67.30
2023-01-17T04:12:04.971Z,67.31
2023-01-17T04:14:36.207Z,67.43
2023-01-17T04:17:07.100Z,67.52
2023-01-17T04:19:38.413Z,67.34
2023-01-17T04:22:10.463Z,67.46
2023-01-17T04:24:41.229Z,67.54
2023-01-17T04:27:14.339Z,67.57
2023-01-17T04:29:46.748Z,67.68
2023-01-17T04:32:17.527Z,67.64
2023-01-17T04:34:48.475Z,67.52
2023-01-17T04:37:19.426Z,67.67
2023-01-17T04:39:50.177Z,67.84
2023-01-17T04:42:21.218Z,67.69
2023-01-17T04:44:54.710Z,67.70
2023-01-17T04:47:25.294Z,67.67
2023-01-17T04:49:56.628Z,67.68
2023-01-17T04:52:27.479Z,67.82
2023-01-17T04:54:58.731Z,67.80
2023-01-17T04:57:29.579Z,67.79
2023-01-17T05:00:01.247Z,67.90
2023-01-17T05:02:32.000Z,67.98
2023-01-17T05:05:03.080Z,68.10
2023-01-17T05:07:35.827Z,68.12
2023-01-17T05:10:07.553Z,67.97
2023-01-17T05:12:38.281Z,68.13
2023-01-17T05:15:10.032Z,68.24
2023-01-17T05:17:40.695Z,68.28
2023-01-17T05:20:13.286Z,68.29
2023-01-17T05:22:43.909Z,68.15
2023-01-17T05:25:14.897Z,67.85
2023-01-17T05:27:47.175Z,67.79
2023-01-17T05:30:18.544Z,67.99
2023-01-17T05:32:50.945Z,68.14
2023-01-17T05:35:22.646Z,67.81
2023-01-17T05:37:54.791Z,67.83
2023-01-17T05:40:27.189Z,67.95
2023-01-17T05:42:59.565Z,67.62
2023-01-17T05:45:32.244Z,68.04
2023-01-17T05:48:04.882Z,68.12
2023-01-17T05:50:37.849Z,68.17
2023-01-17T05:53:09.823Z,68.20
2023-01-17T05:55:41.237Z,68.02
2023-01-17T05:58:15.845Z,68.24
2023-01-17T06:00:47.865Z,68.28
2023-01-17T06:03:20.578Z,68.32
2023-01-17T06:05:52.235Z,68.34
2023-01-17T06:08:23.611Z,68.30
2023-01-17T06:10:55.219Z,68.43
2023-01-17T06:13:27.482Z,68.48
2023-01-17T06:16:03.258Z,68.53
2023-01-17T06:18:34.589Z,68.49
2023-01-17T06:21:06.285Z,68.23
2023-01-17T06:23:37.795Z,68.40
2023-01-17T06:26:10.254Z,68.30
2023-01-17T06:28:42.483Z,68.59
2023-01-17T06:31:14.863Z,68.48
2023-01-17T06:33:46.820Z,68.42
2023-01-17T06:42:36.766Z,68.67
2023-01-17T06:45:09.402Z,68.67
2023-01-17T06:47:41.148Z,68.79
2023-01-17T06:50:13.794Z,68.80
2023-01-17T06:52:44.786Z,68.84
2023-01-17T06:55:15.625Z,68.77
2023-01-17T06:57:46.596Z,68.70
2023-01-17T07:00:18.339Z,68.92
2023-01-17T07:02:51.513Z,68.98
2023-01-17T07:05:22.593Z,69.04
2023-01-17T07:07:53.710Z,68.99
2023-01-17T07:10:24.704Z,68.97
2023-01-17T07:13:01.165Z,69.04
2023-01-17T07:15:31.975Z,69.23
2023-01-17T07:18:03.908Z,69.17
2023-01-17T07:20:34.968Z,69.11
2023-01-17T07:23:06.347Z,69.18
2023-01-17T07:25:37.146Z,69.09
2023-01-17T07:28:08.148Z,69.29
2023-01-17T07:30:39.018Z,68.98
2023-01-17T07:33:09.876Z,69.09
2023-01-17T07:35:40.965Z,68.94
2023-01-17T07:38:12.930Z,69.19
2023-01-17T07:40:43.794Z,69.26
2023-01-17T07:43:14.839Z,69.20
2023-01-17T07:45:46.516Z,69.26
2023-01-17T07:48:17.330Z,69.19
2023-01-17T07:50:49.836Z,69.12
2023-01-17T07:53:21.357Z,69.38
2023-01-17T07:55:52.340Z,69.54
2023-01-17T07:58:23.290Z,69.43
2023-01-17T08:00:54.064Z,69.68
2023-01-17T08:03:24.945Z,69.43
2023-01-17T08:05:57.789Z,69.63
2023-01-17T08:08:28.871Z,69.54
2023-01-17T08:10:59.613Z,69.48
2023-01-17T08:13:31.296Z,69.41
2023-01-17T08:16:03.540Z,69.55
2023-01-17T08:18:34.492Z,69.55
2023-01-17T08:21:05.310Z,69.64
2023-01-17T08:23:36.105Z,69.74
2023-01-17T08:26:06.914Z,69.51
2023-01-17T08:28:37.849Z,69.58
2023-01-17T08:31:09.348Z,69.66
2023-01-17T08:33:40.296Z,69.71
2023-01-17T08:36:11.044Z,69.64
2023-01-17T08:38:41.775Z,69.58
2023-01-17T08:41:13.133Z,69.46
2023-01-17T08:43:44.075Z,69.46
2023-01-17T08:46:14.834Z,69.44
2023-01-17T08:48:45.704Z,69.80
2023-01-17T08:51:16.505Z,69.93
2023-01-17T08:53:48.754Z,69.88
2023-01-17T08:56:19.508Z,69.87
2023-01-17T08:58:50.236Z,69.82
2023-01-17T09:01:21.168Z,69.68
2023-01-17T09:03:52.559Z,69.42
2023-01-17T09:06:23.382Z,69.34
2023-01-17T09:08:55.300Z,69.31
2023-01-17T09:11:25.979Z,69.51
2023-01-17T09:13:56.818Z,69.72
2023-01-17T09:16:27.643Z,69.63
2023-01-17T09:18:58.657Z,69.69
2023-01-17T09:21:29.293Z,69.68
2023-01-17T09:24:00.148Z,69.69
2023-01-17T09:26:31.113Z,69.49
2023-01-17T09:29:01.994Z,69.55
2023-01-17T09:31:32.742Z,69.62
2023-01-17T09:34:03.668Z,69.53
2023-01-17T09:36:34.892Z,69.57
2023-01-17T09:39:05.833Z,69.49
2023-01-17T09:41:36.981Z,69.51
2023-01-17T09:44:09.078Z,69.64
2023-01-17T09:46:40.463Z,69.60
2023-01-17T09:49:13.524Z,69.37
2023-01-17T09:51:45.161Z,69.56
2023-01-17T09:54:19.595Z,69.56
2023-01-17T09:56:53.191Z,69.37
2023-01-17T09:59:33.072Z,69.46
2023-01-17T10:02:11.279Z,69.63
2023-01-17T10:04:51.700Z,69.41
2023-01-17T10:07:24.891Z,69.63
2023-01-17T10:10:05.970Z,69.54
2023-01-17T10:12:39.104Z,69.43
2023-01-17T10:21:21.171Z,69.41
2023-01-17T10:23:59.526Z,69.43
2023-01-17T10:26:30.356Z,69.24
2023-01-17T10:29:02.406Z,69.24
2023-01-17T10:31:35.492Z,69.49
2023-01-17T10:34:07.491Z,69.50
2023-01-17T10:36:39.427Z,69.30
2023-01-17T10:39:15.449Z,69.23
2023-01-17T10:41:46.759Z,69.07
2023-01-17T10:44:22.847Z,69.14
2023-01-17T10:46:56.220Z,69.22
2023-01-17T10:49:28.073Z,69.06
2023-01-17T10:52:08.556Z,69.23
2023-01-17T10:54:51.515Z,69.16
2023-01-17T10:57:22.811Z,69.23
2023-01-17T10:59:53.752Z,69.14
2023-01-17T11:02:25.802Z,68.97
2023-01-17T11:04:57.394Z,68.91
2023-01-17T11:07:29.421Z,68.96
2023-01-17T11:10:00.306Z,68.94
2023-01-17T11:12:31.818Z,69.11
2023-01-17T11:15:07.243Z,68.91
2023-01-17T11:17:38.403Z,69.05
2023-01-17T11:20:15.723Z,68.99
2023-01-17T11:22:47.587Z,68.98
2023-01-17T11:25:23.495Z,68.94
2023-01-17T11:28:01.886Z,68.87
2023-01-17T11:30:32.804Z,68.78
2023-01-17T11:33:06.443Z,68.75
2023-01-17T11:35:37.391Z,68.66
2023-01-17T11:38:13.428Z,68.66
2023-01-17T11:40:44.425Z,68.68
2023-01-17T11:43:23.050Z,68.71
2023-01-17T11:46:04.751Z,68.62
2023-01-17T11:48:37.313Z,68.68
2023-01-17T11:51:15.998Z,68.67
2023-01-17T11:53:48.625Z,68.42
2023-01-17T11:56:22.415Z,68.32
2023-01-17T11:58:53.182Z,68.21
2023-01-17T12:01:27.821Z,68.05
2023-01-17T12:04:09.757Z,67.96
2023-01-17T12:06:56.846Z,67.88
2023-01-17T12:09:31.233Z,67.87
2023-01-17T12:12:21.638Z,67.64
2023-01-17T12:14:56.101Z,67.55
2023-01-17T12:17:30.868Z,67.43
2023-01-17T12:20:05.090Z,67.42
2023-01-17T12:22:42.411Z,67.11
2023-01-17T12:25:18.133Z,66.98
2023-01-17T12:27:50.832Z,66.86
2023-01-17T12:30:25.206Z,66.74
2023-01-17T12:33:05.477Z,66.55
2023-01-17T12:35:38.862Z,66.53
2023-01-17T12:38:18.095Z,66.54
2023-01-17T12:40:56.951Z,66.43
2023-01-17T12:43:29.693Z,66.18
2023-01-17T12:46:03.331Z,66.12
2023-01-17T12:48:35.730Z,66.02
2023-01-17T12:51:07.381Z,65.98
2023-01-17T12:53:39.450Z,65.88
2023-01-17T12:56:12.767Z,65.68
2023-01-17T12:58:44.884Z,65.42
2023-01-17T13:01:18.867Z,65.29
2023-01-17T13:03:53.084Z,65.09
2023-01-17T13:06:26.292Z,64.97
2023-01-17T13:08:58.153Z,65.01
2023-01-17T13:11:33.729Z,64.99
2023-01-17T13:14:06.957Z,64.90
2023-01-17T13:16:40.644Z,64.89
2023-01-17T13:19:15.722Z,64.69
2023-01-17T13:21:46.531Z,64.50
2023-01-17T13:24:33.958Z,64.38
2023-01-17T13:27:09.111Z,64.34
2023-01-17T13:29:41.946Z,64.24
2023-01-17T13:32:16.591Z,64.08
2023-01-17T13:34:53.298Z,64.16
2023-01-17T13:37:31.554Z,64.06
2023-01-17T13:40:09.424Z,64.11
2023-01-17T13:42:43.668Z,63.85
2023-01-17T13:45:19.625Z,63.86
2023-01-17T13:47:50.691Z,63.80
2023-01-17T13:50:34.911Z,63.75
2023-01-17T13:53:19.804Z,63.73
2023-01-17T13:55:53.444Z,63.75
2023-01-17T13:58:30.404Z,63.59
2023-01-17T14:01:01.119Z,63.61
2023-01-17T14:04:01.089Z,63.63
2023-01-17T14:06:35.002Z,63.68
2023-01-17T14:09:07.457Z,63.55
2023-01-17T14:11:38.435Z,63.57
2023-01-17T14:14:26.721Z,63.50
2023-01-17T14:16:57.561Z,63.42
2023-01-17T14:19:30.751Z,63.43
2023-01-17T14:22:14.943Z,63.41
2023-01-17T14:24:59.532Z,63.28
2023-01-17T14:27:32.041Z,63.23
2023-01-17T14:30:02.772Z,63.13
2023-01-17T14:32:34.404Z,62.98
2023-01-17T14:35:05.594Z,63.00
2023-01-17T14:37:39.332Z,63.12
2023-01-17T14:40:17.801Z,62.93
2023-01-17T14:42:48.962Z,62.84
2023-01-17T14:45:23.318Z,62.82
2023-01-17T14:47:54.052Z,62.86
2023-01-17T14:50:26.059Z,62.83
2023-01-17T14:53:09.532Z,62.80
2023-01-17T14:55:40.475Z,62.89
2023-01-17T14:58:18.037Z,62.91
2023-01-17T15:00:50.114Z,63.03
2023-01-17T15:03:21.213Z,63.10
2023-01-17T15:05:52.752Z,63.24
2023-01-17T15:08:23.759Z,63.21
2023-01-17T15:10:55.043Z,63.29
2023-01-17T15:13:43.079Z,63.34
2023-01-17T15:16:24.822Z,63.36
2023-01-17T15:18:56.193Z,63.51
2023-01-17T15:21:28.032Z,63.46
2023-01-17T15:23:59.272Z,63.46
2023-01-17T15:26:30.831Z,63.47
2023-01-17T15:29:03.595Z,63.47
2023-01-17T15:31:41.937Z,63.43
2023-01-17T15:34:16.960Z,63.37
2023-01-17T15:36:49.009Z,63.43
2023-01-17T15:39:22.245Z,63.36
2023-01-17T15:41:53.827Z,63.34
2023-01-17T15:44:25.226Z,63.40
2023-01-17T15:46:56.321Z,63.35
2023-01-17T15:49:29.117Z,63.38
2023-01-17T15:52:14.776Z,63.42
2023-01-17T15:54:48.074Z,63.47
2023-01-17T15:57:22.865Z,63.42
2023-01-17T16:00:05.691Z,63.37
2023-01-17T16:02:43.815Z,63.44
2023-01-17T16:05:43.727Z,63.48
2023-01-17T16:08:35.886Z,63.51
2023-01-17T16:11:09.666Z,63.48
2023-01-17T16:13:42.565Z,63.54
2023-01-17T16:16:17.880Z,63.62
2023-01-17T16:18:49.013Z,63.62
2023-01-17T16:21:20.994Z,63.69
2023-01-17T16:23:52.388Z,63.72
2023-01-17T16:26:23.335Z,63.78
2023-01-17T16:28:54.483Z,63.81
2023-01-17T16:31:25.396Z,63.77
2023-01-17T16:33:56.435Z,63.82
2023-01-17T16:36:27.252Z,63.90
2023-01-17T16:38:58.257Z,63.84
2023-01-17T16:41:29.980Z,64.16
2023-01-17T16:44:02.536Z,64.13
2023-01-17T16:46:38.250Z,64.08
2023-01-17T16:49:09.800Z,64.12
2023-01-17T16:51:40.553Z,64.11
2023-01-17T16:54:11.488Z,64.10
2023-01-17T16:56:42.256Z,64.24
2023-01-17T16:59:13.169Z,64.25
2023-01-17T17:01:44.215Z,64.23
2023-01-17T17:04:15.125Z,64.24
2023-01-17T17:06:46.275Z,64.12
2023-01-17T17:09:17.102Z,64.27
2023-01-17T17:11:47.885Z,64.31
2023-01-17T17:14:18.825Z,64.20
2023-01-17T17:16:52.086Z,64.36
2023-01-17T17:19:22.995Z,64.15
2023-01-17T17:21:53.810Z,64.31
2023-01-17T17:24:24.712Z,64.26
2023-01-17T17:26:55.522Z,64.44
2023-01-17T17:29:26.304Z,64.26
2023-01-17T17:31:57.063Z,64.34
2023-01-17T17:34:30.972Z,64.32
2023-01-17T17:37:03.723Z,64.43
2023-01-17T17:39:35.266Z,64.68
2023-01-17T17:42:06.613Z,64.73
2023-01-17T17:44:37.672Z,64.70
2023-01-17T17:47:08.274Z,64.75
2023-01-17T17:49:39.653Z,64.73
2023-01-17T17:52:10.560Z,64.78
2023-01-17T17:54:42.262Z,64.90
2023-01-17T17:57:12.999Z,65.06
2023-01-17T17:59:43.808Z,64.99
2023-01-17T18:02:14.648Z,65.02
2023-01-17T18:04:45.431Z,65.04
2023-01-17T18:07:16.222Z,65.07
2023-01-17T18:09:47.399Z,65.17
2023-01-17T18:12:18.076Z,65.27
2023-01-17T18:14:48.799Z,65.32
2023-01-17T18:17:20.498Z,65.37
2023-01-17T18:19:51.283Z,65.31
2023-01-17T18:22:22.116Z,65.16
2023-01-17T18:24:52.958Z,65.25
2023-01-17T18:27:23.809Z,65.15
2023-01-17T18:29:54.624Z,65.41
2023-01-17T18:32:25.469Z,65.36
2023-01-17T18:34:56.323Z,65.32
2023-01-17T18:37:27.315Z,65.50
2023-01-17T18:39:58.348Z,65.36
2023-01-17T18:42:29.172Z,65.24
2023-01-17T18:45:00.027Z,65.29
2023-01-17T18:47:31.679Z,65.41
2023-01-17T18:50:02.779Z,65.64
2023-01-17T18:52:35.315Z,65.69
2023-01-17T18:55:06.724Z,65.56
2023-01-17T18:57:38.414Z,65.63
2023-01-17T19:00:10.451Z,65.52
2023-01-17T19:02:41.265Z,65.65
2023-01-17T19:05:15.090Z,65.73
2023-01-17T19:07:46.183Z,65.79
2023-01-17T19:10:19.994Z,65.73
2023-01-17T19:12:50.861Z,65.83
2023-01-17T19:15:21.585Z,65.84
2023-01-17T19:17:52.363Z,65.72
2023-01-17T19:20:23.211Z,65.70
2023-01-17T19:22:53.889Z,65.93
2023-01-17T19:25:25.800Z,65.83
2023-01-17T19:27:57.517Z,65.94
2023-01-17T19:30:28.609Z,65.97
2023-01-17T19:32:59.418Z,65.84
2023-01-17T19:35:30.453Z,65.81
2023-01-17T19:38:01.731Z,65.91
2023-01-17T19:40:32.556Z,65.96
2023-01-17T19:43:04.600Z,66.10
2023-01-17T19:45:35.522Z,66.11
2023-01-17T19:48:06.774Z,66.17
2023-01-17T19:50:37.593Z,65.99
2023-01-17T19:53:08.312Z,66.02
2023-01-17T19:55:42.025Z,66.26
2023-01-17T19:58:13.296Z,66.33
2023-01-17T20:00:46.706Z,66.11
2023-01-17T20:03:17.737Z,66.09
2023-01-17T20:05:48.528Z,66.18
2023-01-17T20:08:19.494Z,66.24
2023-01-17T20:10:50.337Z,66.32
2023-01-17T20:13:21.070Z,66.12
2023-01-17T20:15:52.025Z,66.29
2023-01-17T20:18:22.971Z,66.21
2023-01-17T20:20:57.661Z,66.10
2023-01-17T20:23:28.689Z,66.15
2023-01-17T20:26:00.793Z,66.26
2023-01-17T20:28:32.038Z,66.25
2023-01-17T20:31:07.725Z,66.31
2023-01-17T20:33:38.277Z,66.23
2023-01-17T20:36:11.147Z,66.11
2023-01-17T20:38:45.030Z,66.06
2023-01-17T20:41:17.352Z,66.18
2023-01-17T20:43:48.843Z,66.14
2023-01-17T20:46:20.212Z,66.02
2023-01-17T20:48:51.481Z,66.11
2023-01-17T20:51:22.932Z,66.15
2023-01-17T20:53:54.192Z,66.10
2023-01-17T20:56:25.243Z,66.07
2023-01-17T20:58:56.175Z,65.75
2023-01-17T21:01:28.016Z,66.25
2023-01-17T21:03:59.030Z,66.00
2023-01-17T21:06:29.956Z,66.16
2023-01-17T21:09:01.111Z,65.95
2023-01-17T21:11:32.119Z,66.00
2023-01-17T21:14:02.983Z,65.98
2023-01-17T21:16:34.366Z,66.08
2023-01-17T21:19:05.159Z,66.15
2023-01-17T21:21:36.068Z,66.16
2023-01-17T21:24:07.381Z,66.18
2023-01-17T21:26:40.136Z,66.02
2023-01-17T21:29:11.117Z,66.26
2023-01-17T21:31:42.852Z,66.31
2023-01-17T21:34:13.753Z,66.18
2023-01-17T21:36:44.733Z,66.22
2023-01-17T21:39:16.836Z,66.01
2023-01-17T21:41:48.177Z,66.20
2023-01-17T21:44:20.448Z,66.39
2023-01-17T21:46:55.074Z,66.30
2023-01-17T21:49:26.715Z,66.29
2023-01-17T21:52:14.792Z,66.27
2023-01-17T21:55:03.336Z,66.25
2023-01-17T21:57:51.828Z,66.44
2023-01-17T22:00:22.837Z,66.08
2023-01-17T22:02:53.938Z,66.29
2023-01-17T22:05:24.732Z,66.33
2023-01-17T22:08:15.009Z,66.40
2023-01-17T22:10:48.789Z,66.44
2023-01-17T22:13:19.876Z,66.52
2023-01-17T22:15:58.479Z,66.37
2023-01-17T22:18:29.589Z,66.38
2023-01-17T22:21:04.139Z,66.45
2023-01-17T22:23:35.155Z,66.40
2023-01-17T22:26:06.535Z,66.49
2023-01-17T22:28:37.392Z,66.58
2023-01-17T22:31:10.810Z,66.40
2023-01-17T22:33:42.263Z,66.53
2023-01-17T22:36:13.904Z,66.39
2023-01-17T22:38:45.086Z,66.40
2023-01-17T22:41:17.202Z,66.44
2023-01-17T22:43:48.808Z,66.48
2023-01-17T22:46:20.064Z,66.33
2023-01-17T22:48:51.056Z,66.36
2023-01-17T22:51:22.454Z,66.33
2023-01-17T22:53:53.674Z,66.59
2023-01-17T22:56:25.145Z,66.49
2023-01-17T22:58:55.952Z,66.43
2023-01-17T23:01:27.205Z,66.33
2023-01-17T23:03:58.640Z,66.35
2023-01-17T23:06:30.426Z,66.21
2023-01-17T23:09:02.539Z,66.30
2023-01-17T23:11:46.861Z,66.35
2023-01-17T23:14:18.641Z,66.43
2023-01-17T23:17:07.233Z,66.29
2023-01-17T23:19:38.454Z,66.24
2023-01-17T23:22:20.311Z,66.25
2023-01-17T23:24:51.903Z,66.17
2023-01-17T23:27:40.845Z,66.33
2023-01-17T23:30:13.495Z,66.13
2023-01-17T23:32:46.296Z,66.18
2023-01-17T23:35:17.336Z,66.06
2023-01-17T23:38:05.475Z,66.34
2023-01-17T23:40:36.798Z,66.15
2023-01-17T23:43:25.510Z,66.14
2023-01-17T23:45:56.359Z,66.07
2023-01-17T23:48:27.428Z,65.99
2023-01-17T23:50:59.695Z,66.15
2023-01-17T23:53:30.359Z,66.26
2023-01-17T23:56:01.160Z,65.94
2023-01-17T23:58:31.961Z,65.89
